createdAt,value
2023-01-07T00:01:38.948Z,27.73
2023-01-07T00:04:27.940Z,31.90
2023-01-07T00:07:16.859Z,30.07
2023-01-07T00:10:06.269Z,36.13
2023-01-07T00:12:55.334Z,34.43
2023-01-07T00:15:45.429Z,35.30
2023-01-07T00:18:34.423Z,35.67
2023-01-07T00:21:24.642Z,37.00
2023-01-07T00:24:14.063Z,31.50
2023-01-07T00:27:02.867Z,37.00
2023-01-07T00:29:51.567Z,37.17
2023-01-07T00:32:54.631Z,37.97
2023-01-07T00:35:45.101Z,35.20
2023-01-07T00:38:33.933Z,36.80
2023-01-07T00:41:22.673Z,35.87
2023-01-07T00:44:11.487Z,41.10
2023-01-07T00:47:01.010Z,47.23
2023-01-07T00:49:51.244Z,41.57
2023-01-07T00:52:39.930Z,46.40
2023-01-07T00:55:30.028Z,54.03
2023-01-07T00:58:22.047Z,51.67
2023-01-07T01:01:12.651Z,56.70
2023-01-07T01:04:02.036Z,56.27
2023-01-07T01:06:52.420Z,53.23
2023-01-07T01:09:41.243Z,53.03
2023-01-07T01:12:30.357Z,51.67
2023-01-07T01:15:20.033Z,58.10
2023-01-07T01:18:08.808Z,56.40
2023-01-07T01:20:57.687Z,55.60
2023-01-07T01:23:48.565Z,64.53
2023-01-07T01:26:37.524Z,56.13
2023-01-07T01:29:26.426Z,58.53
2023-01-07T01:32:15.750Z,61.30
2023-01-07T01:35:06.833Z,60.77
2023-01-07T01:37:55.613Z,56.53
2023-01-07T01:40:47.177Z,66.13
2023-01-07T01:43:38.412Z,59.10
2023-01-07T01:46:34.532Z,57.47
2023-01-07T01:49:27.631Z,69.60
2023-01-07T01:52:19.221Z,65.50
2023-01-07T01:55:11.128Z,66.90
2023-01-07T01:58:05.089Z,69.17
2023-01-07T02:00:54.523Z,71.33
2023-01-07T02:03:44.355Z,66.70
2023-01-07T02:06:43.321Z,69.83
2023-01-07T02:09:32.249Z,68.23
2023-01-07T02:12:40.881Z,68.87
2023-01-07T02:15:39.467Z,69.23
2023-01-07T02:18:43.663Z,72.83
2023-01-07T02:21:43.298Z,74.97
2023-01-07T02:25:06.284Z,75.70
2023-01-07T02:28:33.028Z,71.40
2023-01-07T02:31:39.488Z,66.53
2023-01-07T02:34:38.089Z,74.97
2023-01-07T02:37:34.324Z,70.37
2023-01-07T02:40:29.242Z,70.53
2023-01-07T02:43:24.130Z,73.73
2023-01-07T02:46:20.172Z,65.40
2023-01-07T02:49:11.196Z,72.33
2023-01-07T02:52:18.955Z,68.53
2023-01-07T02:55:11.786Z,69.53
2023-01-07T02:58:48.159Z,63.90
2023-01-07T03:01:49.553Z,66.50
2023-01-07T03:05:13.612Z,66.37
2023-01-07T03:08:23.012Z,65.33
2023-01-07T03:11:12.756Z,64.57
2023-01-07T03:14:07.770Z,58.80
2023-01-07T03:17:01.529Z,63.27
2023-01-07T03:19:55.940Z,59.40
2023-01-07T03:22:46.098Z,61.43
2023-01-07T03:25:45.310Z,61.90
2023-01-07T03:28:37.501Z,65.67
2023-01-07T03:31:29.345Z,67.97
2023-01-07T03:34:22.148Z,60.70
2023-01-07T03:37:16.654Z,65.73
2023-01-07T03:40:10.795Z,61.90
2023-01-07T03:43:02.630Z,59.13
2023-01-07T03:45:53.565Z,59.83
2023-01-07T03:48:42.484Z,66.77
2023-01-07T03:51:31.382Z,66.77
2023-01-07T03:54:20.319Z,71.23
2023-01-07T03:57:09.188Z,70.30
2023-01-07T04:00:00.040Z,63.77
2023-01-07T04:02:49.036Z,61.77
2023-01-07T04:05:44.382Z,65.63
2023-01-07T04:08:34.237Z,60.47
2023-01-07T04:11:23.323Z,64.07
2023-01-07T04:14:13.159Z,59.10
2023-01-07T04:17:03.310Z,61.80
2023-01-07T04:19:52.121Z,58.97
2023-01-07T04:22:40.972Z,58.07
2023-01-07T04:25:32.613Z,57.80
2023-01-07T04:28:24.832Z,60.70
2023-01-07T04:31:13.777Z,59.20
2023-01-07T04:34:04.037Z,54.10
2023-01-07T04:36:52.944Z,55.00
2023-01-07T04:39:42.343Z,57.60
2023-01-07T04:42:31.188Z,51.80
2023-01-07T04:45:20.352Z,52.97
2023-01-07T04:48:09.445Z,53.57
2023-01-07T04:50:59.929Z,53.80
2023-01-07T04:53:49.962Z,53.77
2023-01-07T04:56:39.303Z,53.23
2023-01-07T04:59:29.161Z,51.50
2023-01-07T05:02:18.146Z,51.53
2023-01-07T05:05:07.707Z,49.87
2023-01-07T05:07:58.906Z,46.30
2023-01-07T05:10:51.337Z,51.33
2023-01-07T05:13:40.559Z,49.20
2023-01-07T05:16:29.472Z,45.40
2023-01-07T05:19:23.137Z,49.03
2023-01-07T05:22:13.129Z,47.90
2023-01-07T05:25:05.274Z,47.17
2023-01-07T05:27:53.999Z,51.33
2023-01-07T05:30:45.510Z,44.20
2023-01-07T05:33:34.498Z,45.70
2023-01-07T05:36:24.493Z,48.40
2023-01-07T05:39:13.455Z,46.60
2023-01-07T05:42:04.294Z,37.73
2023-01-07T05:44:53.389Z,45.17
2023-01-07T05:47:43.704Z,46.37
2023-01-07T05:50:32.647Z,42.27
2023-01-07T05:53:22.101Z,46.33
2023-01-07T05:56:10.843Z,46.23
2023-01-07T05:59:01.238Z,41.40
2023-01-07T06:01:50.034Z,47.93
2023-01-07T06:04:38.968Z,45.10
2023-01-07T06:07:28.484Z,40.80
2023-01-07T06:10:17.563Z,39.27
2023-01-07T06:13:06.451Z,40.03
2023-01-07T06:16:01.445Z,44.80
2023-01-07T06:18:50.229Z,39.27
2023-01-07T06:21:39.037Z,40.90
2023-01-07T06:24:27.892Z,39.60
2023-01-07T06:27:16.680Z,40.27
2023-01-07T06:30:06.124Z,43.13
2023-01-07T06:32:56.293Z,38.10
2023-01-07T06:35:46.771Z,40.23
2023-01-07T06:38:36.160Z,37.03
2023-01-07T06:41:24.988Z,43.33
2023-01-07T06:44:13.874Z,39.50
2023-01-07T06:47:02.634Z,43.13
2023-01-07T06:49:52.800Z,44.27
2023-01-07T06:52:42.685Z,42.27
2023-01-07T06:55:31.576Z,44.53
2023-01-07T06:58:21.193Z,44.83
2023-01-07T07:01:10.630Z,48.03
2023-01-07T07:03:59.349Z,48.23
2023-01-07T07:06:49.349Z,47.40
2023-01-07T07:09:38.017Z,46.73
2023-01-07T07:12:26.696Z,50.00
2023-01-07T07:15:16.016Z,50.90
2023-01-07T07:18:04.882Z,49.47
2023-01-07T07:20:53.599Z,52.63
2023-01-07T07:23:43.891Z,49.13
2023-01-07T07:26:32.984Z,53.93
2023-01-07T07:29:21.975Z,47.13
2023-01-07T07:32:11.347Z,50.43
2023-01-07T07:35:00.118Z,46.40
2023-01-07T07:37:48.981Z,47.23
2023-01-07T07:40:39.169Z,45.80
2023-01-07T07:43:28.183Z,41.67
2023-01-07T07:46:17.108Z,43.50
2023-01-07T07:49:06.872Z,41.93
2023-01-07T07:51:55.590Z,44.10
2023-01-07T07:54:44.892Z,43.97
2023-01-07T07:57:35.157Z,47.30
2023-01-07T08:00:24.410Z,46.73
2023-01-07T08:03:13.512Z,40.27
2023-01-07T08:06:02.358Z,39.00
2023-01-07T08:08:51.184Z,35.37
2023-01-07T08:11:40.188Z,35.87
2023-01-07T08:14:30.276Z,39.77
2023-01-07T08:17:19.415Z,36.20
2023-01-07T08:20:09.658Z,37.80
2023-01-07T08:23:00.036Z,40.47
2023-01-07T08:25:48.907Z,39.40
2023-01-07T08:28:39.545Z,52.30
2023-01-07T08:31:29.792Z,44.30
2023-01-07T08:34:18.673Z,48.40
2023-01-07T08:37:07.400Z,44.17
2023-01-07T08:39:56.190Z,36.60
2023-01-07T08:42:44.989Z,46.47
2023-01-07T08:45:33.837Z,52.53
2023-01-07T08:48:24.502Z,45.63
2023-01-07T08:51:13.378Z,41.50
2023-01-07T08:54:02.499Z,40.53
2023-01-07T08:56:51.134Z,43.43
2023-01-07T08:59:40.850Z,35.63
2023-01-07T09:02:29.796Z,38.23
2023-01-07T09:05:20.122Z,38.30
2023-01-07T09:08:08.889Z,37.43
2023-01-07T09:10:57.655Z,37.47
2023-01-07T09:13:46.508Z,40.23
2023-01-07T09:16:35.365Z,38.83
2023-01-07T09:19:24.613Z,36.67
2023-01-07T09:22:15.051Z,37.80
2023-01-07T09:25:03.938Z,39.83
2023-01-07T09:27:52.751Z,41.50
2023-01-07T09:30:41.995Z,40.57
2023-01-07T09:33:31.724Z,42.40
2023-01-07T09:36:20.499Z,40.23
2023-01-07T09:39:13.243Z,41.47
2023-01-07T09:42:10.867Z,48.30
2023-01-07T09:45:35.790Z,42.13
2023-01-07T09:48:30.077Z,45.23
2023-01-07T09:51:25.223Z,42.57
2023-01-07T09:54:23.338Z,40.77
2023-01-07T09:57:18.136Z,37.37
2023-01-07T10:00:16.810Z,38.30
2023-01-07T10:03:18.971Z,36.50
2023-01-07T10:06:12.477Z,38.93
2023-01-07T10:09:08.415Z,36.33
2023-01-07T10:12:20.210Z,37.70
2023-01-07T10:15:33.991Z,35.83
2023-01-07T10:18:37.073Z,34.33
2023-01-07T10:21:33.307Z,33.90
2023-01-07T10:24:27.523Z,38.50
2023-01-07T10:27:26.141Z,37.87
2023-01-07T10:30:19.341Z,38.53
2023-01-07T10:33:18.853Z,34.77
2023-01-07T10:36:20.188Z,43.20
2023-01-07T10:39:21.195Z,39.27
2023-01-07T10:42:18.145Z,42.33
2023-01-07T10:45:33.605Z,40.43
2023-01-07T10:49:08.421Z,38.40
2023-01-07T10:52:35.700Z,39.73
2023-01-07T10:55:41.617Z,39.67
2023-01-07T10:58:35.570Z,36.63
2023-01-07T11:01:29.436Z,35.63
2023-01-07T11:04:18.757Z,34.53
2023-01-07T11:07:09.953Z,37.67
2023-01-07T11:10:04.607Z,32.37
2023-01-07T11:12:57.439Z,34.77
2023-01-07T11:15:50.265Z,35.80
2023-01-07T11:18:48.427Z,36.83
2023-01-07T11:21:43.384Z,35.17
2023-01-07T11:24:34.548Z,36.93
2023-01-07T11:27:25.563Z,33.97
2023-01-07T11:30:25.945Z,35.87
2023-01-07T11:33:23.987Z,34.97
2023-01-07T11:36:43.792Z,31.73
2023-01-07T11:39:34.768Z,36.00
2023-01-07T11:42:41.787Z,36.17
2023-01-07T11:45:34.178Z,39.10
2023-01-07T11:48:29.641Z,29.60
2023-01-07T11:51:18.661Z,35.70
2023-01-07T11:54:21.921Z,32.03
2023-01-07T11:57:15.228Z,32.60
2023-01-07T12:00:21.887Z,33.57
2023-01-07T12:03:14.337Z,37.27
2023-01-07T12:06:08.854Z,34.33
2023-01-07T12:09:05.770Z,30.60
2023-01-07T12:11:58.917Z,30.83
2023-01-07T12:14:49.358Z,32.60
2023-01-07T12:17:39.353Z,28.57
2023-01-07T12:20:49.925Z,33.77
2023-01-07T12:23:51.148Z,29.67
2023-01-07T12:26:46.237Z,34.93
2023-01-07T12:29:49.529Z,30.50
2023-01-07T12:32:47.372Z,27.30
2023-01-07T12:35:41.990Z,33.53
2023-01-07T12:38:42.915Z,32.37
2023-01-07T12:41:35.003Z,32.20
2023-01-07T12:44:23.965Z,34.00
2023-01-07T12:47:31.867Z,35.07
2023-01-07T12:50:32.406Z,34.73
2023-01-07T12:53:33.807Z,29.70
2023-01-07T12:56:27.041Z,31.73
2023-01-07T12:59:46.569Z,26.47
2023-01-07T13:02:38.405Z,29.33
2023-01-07T13:05:33.633Z,29.43
2023-01-07T13:08:33.387Z,27.23
2023-01-07T13:11:47.314Z,28.27
2023-01-07T13:14:41.907Z,30.83
2023-01-07T13:17:33.366Z,31.93
2023-01-07T13:20:44.146Z,34.43
2023-01-07T13:23:50.620Z,33.93
2023-01-07T13:26:50.575Z,31.80
2023-01-07T13:29:50.663Z,34.47
2023-01-07T13:33:01.501Z,31.07
2023-01-07T13:36:10.047Z,29.77
2023-01-07T13:39:29.648Z,26.93
2023-01-07T13:42:31.598Z,31.67
2023-01-07T13:45:24.150Z,28.07
2023-01-07T13:48:23.237Z,33.43
2023-01-07T13:51:12.202Z,33.03
2023-01-07T13:54:01.227Z,34.57
2023-01-07T13:56:50.127Z,29.50
2023-01-07T13:59:50.179Z,32.67
2023-01-07T14:02:55.918Z,31.83
2023-01-07T14:05:47.434Z,33.13
2023-01-07T14:08:36.234Z,35.50
2023-01-07T14:11:48.855Z,38.47
2023-01-07T14:14:46.714Z,41.43
2023-01-07T14:17:46.777Z,41.77
2023-01-07T14:20:44.057Z,39.17
2023-01-07T14:23:45.805Z,40.53
2023-01-07T14:26:43.313Z,38.23
2023-01-07T14:29:42.304Z,34.87
2023-01-07T14:32:34.425Z,38.00
2023-01-07T14:35:29.817Z,37.77
2023-01-07T14:38:59.825Z,39.10
2023-01-07T14:42:21.929Z,37.77
2023-01-07T14:45:47.920Z,38.43
2023-01-07T14:48:38.082Z,41.73
2023-01-07T14:51:37.309Z,37.00
2023-01-07T14:54:48.453Z,38.93
2023-01-07T14:57:46.658Z,39.80
2023-01-07T15:00:56.164Z,43.17
2023-01-07T15:03:55.243Z,38.10
2023-01-07T15:06:44.657Z,38.50
2023-01-07T15:10:01.502Z,33.80
2023-01-07T15:13:11.719Z,35.53
2023-01-07T15:16:02.923Z,35.73
2023-01-07T15:18:54.551Z,39.60
2023-01-07T15:21:54.512Z,36.00
2023-01-07T15:24:51.818Z,33.13
2023-01-07T15:27:49.549Z,37.00
2023-01-07T15:30:49.071Z,40.73
2023-01-07T15:33:59.948Z,34.23
2023-01-07T15:36:51.210Z,31.90
2023-01-07T15:39:45.311Z,33.97
2023-01-07T15:42:36.201Z,30.90
2023-01-07T15:45:27.822Z,28.23
2023-01-07T15:48:16.715Z,33.10
2023-01-07T15:51:16.729Z,28.23
2023-01-07T15:54:07.309Z,28.33
2023-01-07T15:57:00.404Z,30.53
2023-01-07T15:59:54.487Z,28.53
2023-01-07T16:02:45.707Z,29.23
2023-01-07T16:05:38.068Z,29.37
2023-01-07T16:08:29.949Z,32.07
2023-01-07T16:11:25.556Z,30.83
2023-01-07T16:14:17.380Z,31.90
2023-01-07T16:17:14.563Z,28.00
2023-01-07T16:20:15.919Z,31.70
2023-01-07T16:23:20.668Z,28.53
2023-01-07T16:26:14.520Z,31.90
2023-01-07T16:29:09.993Z,31.90
2023-01-07T16:31:59.860Z,36.07
2023-01-07T16:35:09.560Z,28.87
2023-01-07T16:37:58.457Z,34.00
2023-01-07T16:40:48.168Z,29.27
2023-01-07T16:43:45.087Z,30.03
2023-01-07T16:46:36.320Z,29.53
2023-01-07T16:49:30.001Z,35.30
2023-01-07T16:52:21.884Z,33.20
2023-01-07T16:55:46.560Z,31.13
2023-01-07T16:58:43.023Z,34.67
2023-01-07T17:01:34.441Z,31.00
2023-01-07T17:04:30.013Z,33.07
2023-01-07T17:07:25.016Z,33.60
2023-01-07T17:10:22.035Z,34.47
2023-01-07T17:13:33.975Z,32.60
2023-01-07T17:16:26.514Z,34.83
2023-01-07T17:19:26.811Z,34.50
2023-01-07T17:22:32.498Z,31.40
2023-01-07T17:25:26.296Z,35.40
2023-01-07T17:28:19.362Z,36.13
2023-01-07T17:31:08.348Z,30.90
2023-01-07T17:33:57.561Z,32.30
2023-01-07T17:36:46.237Z,33.57
2023-01-07T17:39:36.319Z,37.27
2023-01-07T17:42:47.591Z,32.00
2023-01-07T17:45:36.467Z,37.73
2023-01-07T17:48:25.236Z,36.40
2023-01-07T17:51:14.097Z,32.23
2023-01-07T17:54:02.961Z,37.40
2023-01-07T17:56:53.589Z,40.73
2023-01-07T17:59:47.360Z,35.47
2023-01-07T18:02:36.426Z,42.37
2023-01-07T18:05:27.366Z,41.00
2023-01-07T18:08:16.152Z,41.53
2023-01-07T18:11:22.872Z,41.10
2023-01-07T18:14:14.414Z,42.17
2023-01-07T18:17:03.123Z,39.33
2023-01-07T18:19:51.856Z,37.87
2023-01-07T18:22:41.204Z,40.10
2023-01-07T18:25:30.249Z,39.87
2023-01-07T18:28:19.344Z,41.80
2023-01-07T18:31:09.870Z,41.93
2023-01-07T18:33:58.633Z,39.07
2023-01-07T18:36:47.437Z,41.80
2023-01-07T18:39:36.722Z,40.90
2023-01-07T18:42:25.432Z,44.93
2023-01-07T18:45:14.909Z,46.53
2023-01-07T18:48:05.343Z,48.33
2023-01-07T18:50:54.664Z,51.50
2023-01-07T18:53:43.376Z,56.90
2023-01-07T18:56:32.125Z,52.83
2023-01-07T18:59:20.841Z,56.20
2023-01-07T19:02:16.409Z,59.53
2023-01-07T19:05:07.747Z,60.63
2023-01-07T19:07:56.444Z,57.97
2023-01-07T19:10:45.593Z,61.63
2023-01-07T19:13:34.392Z,59.27
2023-01-07T19:16:23.137Z,65.33
2023-01-07T19:19:12.021Z,59.93
2023-01-07T19:22:02.191Z,62.20
2023-01-07T19:24:54.959Z,63.33
2023-01-07T19:27:43.854Z,59.40
2023-01-07T19:30:32.680Z,65.50
2023-01-07T19:33:21.817Z,58.27
2023-01-07T19:36:13.033Z,61.83
2023-01-07T19:39:03.561Z,62.70
2023-01-07T19:41:52.545Z,71.73
2023-01-07T19:44:41.734Z,65.37
2023-01-07T19:47:30.429Z,67.30
2023-01-07T19:50:19.229Z,64.37
2023-01-07T19:53:10.156Z,63.77
2023-01-07T19:56:02.601Z,62.03
2023-01-07T19:58:54.748Z,62.60
2023-01-07T20:01:45.349Z,61.83
2023-01-07T20:04:34.140Z,61.60
2023-01-07T20:07:23.043Z,64.27
2023-01-07T20:10:13.022Z,62.13
2023-01-07T20:13:03.141Z,65.60
2023-01-07T20:15:52.134Z,60.90
2023-01-07T20:18:42.435Z,64.13
2023-01-07T20:21:31.290Z,60.77
2023-01-07T20:24:20.074Z,61.13
2023-01-07T20:27:08.912Z,55.03
2023-01-07T20:29:59.060Z,55.07
2023-01-07T20:32:47.888Z,54.07
2023-01-07T20:35:37.721Z,57.63
2023-01-07T20:38:26.633Z,57.83
2023-01-07T20:41:17.386Z,57.43
2023-01-07T20:44:08.819Z,56.73
2023-01-07T20:46:59.454Z,51.83
2023-01-07T20:49:48.190Z,52.20
2023-01-07T20:52:37.067Z,52.90
2023-01-07T20:55:26.971Z,54.53
2023-01-07T20:58:15.607Z,56.77
2023-01-07T21:01:05.236Z,56.77
2023-01-07T21:03:55.441Z,52.87
2023-01-07T21:06:44.842Z,54.43
2023-01-07T21:09:33.631Z,51.53
2023-01-07T21:12:22.421Z,54.60
2023-01-07T21:15:13.086Z,52.50
2023-01-07T21:18:02.178Z,52.83
2023-01-07T21:20:52.473Z,57.90
2023-01-07T21:23:41.771Z,56.03
2023-01-07T21:26:30.961Z,53.50
2023-01-07T21:29:19.802Z,56.07
2023-01-07T21:32:09.126Z,55.60
2023-01-07T21:34:57.876Z,54.23
2023-01-07T21:37:49.874Z,54.80
2023-01-07T21:40:40.565Z,52.93
2023-01-07T21:43:29.430Z,53.20
2023-01-07T21:46:18.861Z,54.93
2023-01-07T21:49:08.336Z,54.63
2023-01-07T21:51:57.038Z,57.13
2023-01-07T21:54:47.223Z,53.07
2023-01-07T21:57:37.098Z,59.83
2023-01-07T22:00:25.966Z,53.47
2023-01-07T22:03:14.637Z,54.50
2023-01-07T22:06:05.406Z,61.50
2023-01-07T22:08:56.449Z,57.60
2023-01-07T22:11:46.931Z,60.57
2023-01-07T22:14:35.771Z,57.77
2023-01-07T22:17:25.215Z,51.97
2023-01-07T22:20:14.068Z,64.70
2023-01-07T22:23:02.838Z,56.80
2023-01-07T22:25:51.864Z,56.93
2023-01-07T22:28:43.108Z,55.37
2023-01-07T22:31:34.441Z,59.40
2023-01-07T22:34:23.280Z,54.83
2023-01-07T22:37:15.624Z,56.43
2023-01-07T22:40:07.332Z,57.10
2023-01-07T22:42:59.223Z,58.73
2023-01-07T22:45:54.132Z,60.10
2023-01-07T22:48:43.239Z,57.07
2023-01-07T22:51:38.656Z,50.40
2023-01-07T22:54:28.187Z,59.87
2023-01-07T22:57:17.157Z,58.40
2023-01-07T23:00:07.840Z,56.70
2023-01-07T23:02:58.406Z,59.23
2023-01-07T23:05:47.680Z,63.93
2023-01-07T23:08:36.992Z,58.60
2023-01-07T23:11:43.109Z,62.80
2023-01-07T23:14:32.833Z,63.73
2023-01-07T23:17:21.656Z,61.23
2023-01-07T23:20:12.441Z,61.10
2023-01-07T23:23:01.407Z,63.20
2023-01-07T23:25:51.618Z,59.13
2023-01-07T23:28:40.444Z,60.23
2023-01-07T23:31:29.381Z,66.63
2023-01-07T23:34:18.655Z,60.63
2023-01-07T23:37:09.000Z,60.27
2023-01-07T23:39:58.036Z,61.77
2023-01-07T23:42:49.169Z,61.20
2023-01-07T23:45:37.877Z,62.00
2023-01-07T23:48:27.531Z,64.03
2023-01-07T23:51:17.952Z,83.70
2023-01-07T23:54:08.475Z,59.03
2023-01-07T23:56:57.127Z,63.53
2023-01-07T23:59:45.797Z,64.27
